Time;durP1;ratioP1;P1;durP2;ratioP2;P2;SDS_P1;SDS_P2;PMS_P1;PMS_P2;Temp;Humidity;BMP_temperature;BMP_pressure;BME280_temperature;BME280_humidity;BME280_pressure;Samples;Min_cycle;Max_cycle;Signal;HPM_P1;HPM_P2
2021/05/19 00:02:00;;;;;;;4.70;1.38;;;11.40;99.90;;;11.22;94.29;101596.41;4120891;28;20055;-71
2021/05/19 00:04:02;;;;;;;6.07;1.17;;;11.40;99.90;;;11.29;93.13;101582.47;4121414;28;20084;-72
2021/05/19 00:06:03;;;;;;;2.97;1.13;;;11.50;99.90;;;11.21;93.85;101590.28;4121299;28;20023;-72
2021/05/19 00:08:04;;;;;;;6.05;1.65;;;11.50;99.90;;;11.13;94.42;101587.50;4121229;28;20399;-72
2021/05/19 00:10:07;;;;;;;5.35;1.20;;;11.40;99.90;;;11.10;94.18;101575.44;4120802;28;20371;-71
2021/05/19 00:12:08;;;;;;;6.10;1.50;;;11.40;99.90;;;11.06;95.09;101584.59;4120119;28;20035;-71
2021/05/19 00:14:10;;;;;;;6.00;1.60;;;11.40;99.90;;;11.14;94.50;101581.22;4135997;28;20053;-71
2021/05/19 00:16:11;;;;;;;4.45;1.92;;;11.40;99.90;;;11.13;94.78;101576.94;4121089;28;20094;-71
2021/05/19 00:18:12;;;;;;;5.70;1.90;;;11.30;99.90;;;11.17;94.93;101573.03;4119704;28;20089;-71
2021/05/19 00:20:15;;;;;;;4.22;1.17;;;11.30;99.90;;;11.15;95.21;101574.16;4120988;28;20026;-71
2021/05/19 00:22:16;;;;;;;3.88;1.20;;;11.30;99.90;;;11.01;95.21;101573.63;4121172;28;20023;-71
2021/05/19 00:24:17;;;;;;;4.72;1.20;;;11.40;99.90;;;11.10;95.11;101567.50;4120882;28;20039;-71
2021/05/19 00:26:18;;;;;;;6.60;1.77;;;11.30;99.90;;;11.12;95.06;101567.34;4120844;28;20054;-72
2021/05/19 00:28:21;;;;;;;5.25;1.10;;;11.30;99.90;;;11.06;95.57;101576.66;4121218;28;20103;-71
2021/05/19 00:30:22;;;;;;;7.78;1.58;;;11.30;99.90;;;11.10;95.00;101567.50;4121097;28;20049;-71
2021/05/19 00:32:23;;;;;;;6.38;1.30;;;11.30;99.90;;;11.00;95.56;101573.75;4120742;28;20039;-71
2021/05/19 00:34:24;;;;;;;5.50;1.48;;;11.30;99.90;;;11.09;95.64;101570.25;4120718;28;20030;-72
2021/05/19 00:36:26;;;;;;;5.25;2.10;;;11.40;99.90;;;11.10;95.30;101564.88;4121025;28;20054;-72
2021/05/19 00:38:27;;;;;;;5.70;1.60;;;11.40;99.90;;;11.14;95.58;101570.66;4135608;28;20022;-71
2021/05/19 00:40:29;;;;;;;5.28;1.75;;;11.40;99.90;;;11.28;95.41;101569.44;4120500;28;20038;-72
2021/05/19 00:42:30;;;;;;;7.00;1.30;;;11.50;99.90;;;11.26;95.17;101571.38;4119316;28;20030;-72
2021/05/19 00:44:31;;;;;;;8.77;2.17;;;11.60;99.90;;;11.02;95.95;101562.06;4120835;28;20406;-72
2021/05/19 00:46:34;;;;;;;4.50;1.42;;;11.50;99.90;;;11.09;95.98;101570.25;4120752;28;20023;-71
2021/05/19 00:48:35;;;;;;;8.68;2.30;;;11.50;99.90;;;11.05;96.30;101563.63;4120713;28;20497;-72
2021/05/19 00:50:39;;;;;;;4.03;1.35;;;11.50;99.90;;;11.35;94.93;101559.97;4120660;28;20027;-71
2021/05/19 00:52:40;;;;;;;6.25;1.40;;;11.60;99.90;;;11.23;95.08;101547.91;4120844;28;20042;-71
2021/05/19 00:54:41;;;;;;;7.20;1.92;;;11.60;99.90;;;11.32;94.56;101542.59;4119121;28;20041;-72
2021/05/19 00:56:42;;;;;;;8.25;1.73;;;11.60;99.90;;;11.35;95.22;101549.41;4120459;28;20406;-72
2021/05/19 00:58:43;;;;;;;4.47;1.30;;;11.70;99.90;;;11.41;95.01;101551.50;4119268;28;20026;-71
2021/05/19 01:00:44;;;;;;;6.85;1.52;;;11.80;99.90;;;11.39;94.09;101550.78;4119419;28;20034;-71
2021/05/19 01:02:45;;;;;;;7.53;1.83;;;11.80;99.90;;;11.30;94.69;101554.25;4120425;28;20050;-71
2021/05/19 01:04:46;;;;;;;5.63;1.33;;;11.70;99.90;;;11.36;95.01;101553.72;4120466;28;20027;-71
2021/05/19 01:06:58;;;;;;;5.72;1.30;;;11.70;99.90;;;11.42;94.59;101555.78;4120325;28;20019;-71
2021/05/19 01:11:18;;;;;;;8.10;1.35;;;11.80;99.90;;;11.23;95.40;101537.34;4120631;28;20042;-71
2021/05/19 01:13:21;;;;;;;6.40;1.17;;;11.70;99.90;;;11.23;95.76;101543.44;4119149;28;20034;-72
2021/05/19 01:15:22;;;;;;;5.53;1.38;;;11.70;99.90;;;11.34;95.20;101545.09;4120584;28;20118;-71
2021/05/19 01:17:23;;;;;;;6.35;1.80;;;11.80;99.90;;;11.47;95.23;101543.81;4120421;28;20484;-71
2021/05/19 01:19:26;;;;;;;4.53;1.23;;;11.80;99.90;;;11.56;95.43;101542.13;4119324;28;20027;-71
2021/05/19 01:21:28;;;;;;;9.75;2.08;;;11.90;99.90;;;11.75;94.85;101550.03;4120112;28;20039;-71
2021/05/19 01:23:31;;;;;;;9.07;2.40;;;12.00;99.90;;;11.53;96.24;101552.97;4120002;28;20051;-71
2021/05/19 01:25:34;;;;;;;6.80;2.92;;;12.00;99.90;;;11.41;97.25;101538.28;4119102;28;20069;-71
2021/05/19 01:27:35;;;;;;;8.68;1.80;;;12.00;99.90;;;11.46;97.42;101552.72;4120135;28;20031;-71
2021/05/19 01:29:36;;;;;;;6.80;1.60;;;11.90;99.90;;;11.32;98.60;101549.69;4120067;28;20027;-71
2021/05/19 01:31:37;;;;;;;7.07;2.03;;;11.90;99.90;;;11.36;98.73;101536.06;4120372;28;20027;-71
2021/05/19 01:33:39;;;;;;;6.15;1.90;;;11.80;99.90;;;11.31;99.13;101540.09;4120155;28;20030;-71
2021/05/19 01:35:40;;;;;;;6.03;1.92;;;11.80;99.90;;;11.34;99.46;101542.47;4120158;28;20057;-71
2021/05/19 01:37:43;;;;;;;8.73;2.00;;;11.80;99.90;;;11.30;98.77;101543.69;4119953;28;20031;-71
2021/05/19 01:39:46;;;;;;;10.23;2.80;;;11.70;99.90;;;11.19;99.54;101549.16;4118915;28;20034;-71
2021/05/19 01:41:49;;;;;;;6.57;1.50;;;11.60;99.90;;;11.25;99.49;101548.59;4120093;28;20062;-71
2021/05/19 01:43:50;;;;;;;7.72;1.98;;;11.60;99.90;;;11.21;99.86;101552.47;4118768;28;20027;-71
2021/05/19 01:45:51;;;;;;;7.35;1.75;;;11.50;99.90;;;11.06;99.87;101547.63;4119975;28;20482;-71
2021/05/19 01:47:54;;;;;;;6.15;2.25;;;11.40;99.90;;;11.01;100.00;101551.66;4120030;28;20038;-71
2021/05/19 01:49:56;;;;;;;7.70;1.92;;;11.40;99.90;;;10.97;100.00;101551.09;4119843;28;20027;-71
2021/05/19 01:52:01;;;;;;;10.55;1.95;;;11.30;99.90;;;10.99;100.00;101538.56;4118585;28;20042;-71
2021/05/19 01:54:04;;;;;;;7.13;2.20;;;11.30;99.90;;;10.85;100.00;101536.38;4119947;28;20046;-72
2021/05/19 01:56:05;;;;;;;4.07;1.90;;;11.30;99.90;;;10.87;100.00;101538.88;4103077;28;20422;-71
2021/05/19 01:58:06;;;;;;;7.43;1.98;;;11.20;99.90;;;10.94;100.00;101534.69;4119869;28;20029;-71
2021/05/19 02:00:08;;;;;;;5.65;1.60;;;11.20;99.90;;;10.86;100.00;101540.69;4118607;28;20470;-71
2021/05/19 02:02:09;;;;;;;6.85;2.20;;;11.10;99.90;;;10.80;100.00;101530.69;4118501;28;20117;-71
2021/05/19 02:04:14;;;;;;;6.75;1.73;;;11.10;99.90;;;10.83;100.00;101538.31;4118895;28;20030;-71
2021/05/19 02:06:15;;;;;;;8.35;1.85;;;11.10;99.90;;;10.77;100.00;101524.84;4134519;28;20106;-71
2021/05/19 02:08:16;;;;;;;9.65;2.00;;;11.10;99.90;;;10.87;99.80;101530.97;4119729;28;20122;-71
2021/05/19 02:10:17;;;;;;;5.22;1.63;;;11.10;99.90;;;10.80;100.00;101537.75;4118269;28;20031;-71
2021/05/19 02:12:19;;;;;;;7.20;2.05;;;11.10;99.90;;;10.92;100.00;101531.38;4118534;28;20069;-71
2021/05/19 02:14:21;;;;;;;10.65;2.72;;;11.10;99.90;;;10.66;100.00;101531.09;4118593;28;20039;-71
2021/05/19 02:16:21;;;;;;;9.13;2.75;;;11.10;99.90;;;10.76;100.00;101537.19;4134449;28;20026;-71
2021/05/19 02:18:22;;;;;;;5.97;2.53;;;11.00;99.90;;;10.62;100.00;101527.03;4119848;28;20541;-71
2021/05/19 02:20:23;;;;;;;5.68;2.70;;;11.00;99.90;;;10.63;100.00;101538.44;4119507;28;20062;-71
2021/05/19 02:22:24;;;;;;;5.97;2.03;;;10.90;99.90;;;10.74;100.00;101538.31;4122817;28;20027;-71
2021/05/19 02:24:25;;;;;;;10.13;2.35;;;10.90;99.90;;;10.82;99.53;101538.44;4122593;28;20034;-71
2021/05/19 02:26:26;;;;;;;7.38;2.20;;;11.00;99.90;;;10.70;99.94;101536.91;4106992;28;20065;-71
2021/05/19 02:28:27;;;;;;;7.93;2.22;;;11.00;99.90;;;10.83;99.90;101535.69;4105729;28;20070;-71
2021/05/19 02:30:30;;;;;;;7.57;2.33;;;11.00;99.90;;;10.81;100.00;101540.25;4106839;28;20447;-71
2021/05/19 02:32:32;;;;;;;10.82;2.75;;;11.00;99.90;;;10.88;99.26;101541.38;4106882;28;20503;-71
2021/05/19 02:34:33;;;;;;;8.20;2.25;;;11.10;99.90;;;10.90;99.26;101541.25;4106710;28;20050;-71
2021/05/19 02:36:36;;;;;;;8.73;2.00;;;11.10;99.90;;;10.82;100.00;101538.44;4106846;28;20059;-71
2021/05/19 02:38:38;;;;;;;5.10;2.28;;;11.10;99.90;;;10.87;99.85;101547.59;4106497;28;20482;-71
2021/05/19 02:40:39;;;;;;;8.10;1.90;;;11.20;99.90;;;10.93;99.19;101554.16;4105410;28;20037;-71
2021/05/19 02:42:40;;;;;;;6.35;2.40;;;11.20;99.90;;;10.91;99.65;101546.38;4106806;28;20110;-71
2021/05/19 02:44:41;;;;;;;3.67;1.27;;;11.20;99.90;;;10.92;99.86;101541.94;4106526;28;20046;-71
2021/05/19 02:46:42;;;;;;;10.98;1.83;;;11.20;99.90;;;10.90;100.00;101549.16;4106610;28;20031;-71
2021/05/19 02:48:43;;;;;;;12.93;1.85;;;11.20;99.90;;;10.97;100.00;101545.81;4106584;28;20058;-71
2021/05/19 02:50:44;;;;;;;9.63;2.65;;;11.30;99.90;;;10.65;100.00;101550.50;4106523;28;20153;-71
2021/05/19 02:52:45;;;;;;;6.60;1.92;;;11.20;99.90;;;10.92;100.00;101552.47;4106611;28;20035;-71
2021/05/19 02:54:46;;;;;;;7.43;1.77;;;11.30;99.90;;;10.80;99.89;101550.94;4106422;28;20031;-71
2021/05/19 02:56:47;;;;;;;7.80;1.70;;;11.30;99.90;;;10.84;99.98;101547.88;4106399;28;20034;-71
2021/05/19 02:58:48;;;;;;;5.97;2.40;;;11.30;99.90;;;10.92;99.37;101548.03;4106294;28;20039;-71
2021/05/19 03:00:49;;;;;;;8.35;2.60;;;11.30;99.90;;;10.93;99.16;101554.16;4106459;28;20079;-71
2021/05/19 03:02:50;;;;;;;6.20;1.60;;;11.30;99.90;;;10.92;99.94;101561.25;4106100;28;20047;-71
2021/05/19 03:04:51;;;;;;;10.35;1.67;;;11.30;99.90;;;10.97;98.39;101555.53;4106278;28;20028;-71
2021/05/19 03:06:52;;;;;;;7.72;1.98;;;11.30;99.90;;;11.05;98.80;101553.88;4105019;28;20432;-71
2021/05/19 03:08:53;;;;;;;11.10;2.47;;;11.30;99.90;;;10.86;99.40;101558.31;4108903;28;20389;-71
2021/05/19 03:10:54;;;;;;;7.18;1.77;;;11.20;99.90;;;10.84;99.67;101571.63;4122261;28;20022;-71
2021/05/19 03:12:56;;;;;;;8.18;2.25;;;11.20;99.90;;;10.82;99.61;101564.81;4122143;28;20399;-71
2021/05/19 03:14:57;;;;;;;8.73;2.13;;;11.10;99.90;;;10.74;99.71;101551.50;4120853;28;20030;-71
2021/05/19 03:17:01;;;;;;;9.48;2.00;;;11.10;99.90;;;10.75;99.17;101561.09;4121198;28;20023;-71
2021/05/19 03:19:02;;;;;;;9.63;1.95;;;11.10;99.90;;;10.61;99.71;101549.09;4122283;28;20103;-71
2021/05/19 03:21:04;;;;;;;7.13;2.20;;;11.00;99.90;;;11.00;98.20;101565.81;4122022;28;20031;-71
2021/05/19 03:23:05;;;;;;;9.43;2.15;;;11.10;99.90;;;10.73;98.83;101571.75;4121777;28;20046;-71
2021/05/19 03:25:07;;;;;;;14.02;2.00;;;11.10;99.90;;;10.56;99.69;101561.88;4121898;28;20022;-71
2021/05/19 03:27:09;;;;;;;10.27;1.85;;;11.00;99.90;;;10.57;99.54;101558.28;4121945;28;20054;-71
2021/05/19 03:29:10;;;;;;;8.10;1.80;;;10.90;99.90;;;10.55;99.16;101552.28;4122043;28;20464;-71
2021/05/19 03:31:12;;;;;;;6.65;2.47;;;10.90;99.90;;;10.63;99.82;101568.31;4121786;28;20376;-71
2021/05/19 03:33:13;;;;;;;11.02;2.30;;;10.90;99.90;;;10.70;100.00;101577.31;4121360;28;20096;-71
2021/05/19 03:35:14;;;;;;;8.80;2.28;;;10.90;99.90;;;10.80;98.79;101583.47;4121843;28;20034;-71
2021/05/19 03:37:16;;;;;;;10.63;2.38;;;10.90;99.90;;;10.80;99.13;101583.47;4121846;28;20030;-71
2021/05/19 03:39:17;;;;;;;8.95;1.65;;;11.00;99.90;;;10.73;99.08;101574.41;4121494;28;20560;-71
2021/05/19 03:41:18;;;;;;;9.15;2.30;;;11.10;99.90;;;10.85;97.89;101583.03;4121870;28;20034;-71
2021/05/19 03:43:19;;;;;;;7.05;2.28;;;11.10;99.90;;;10.74;99.28;101573.44;4121867;28;20041;-71
2021/05/19 03:45:23;;;;;;;10.30;3.05;;;11.10;99.90;;;10.71;99.43;101578.16;4121712;28;20033;-71
2021/05/19 03:47:24;;;;;;;10.48;2.38;;;11.10;99.90;;;10.81;99.21;101586.94;4120412;28;20035;-71
2021/05/19 03:49:31;;;;;;;6.57;1.77;;;11.10;99.90;;;10.88;97.31;101586.22;4121762;28;20022;-71
2021/05/19 03:51:33;;;;;;;11.90;2.28;;;11.20;99.90;;;10.86;97.46;101590.00;4120528;28;20105;-71
2021/05/19 03:53:35;;;;;;;3.97;1.58;;;11.20;99.90;;;10.77;98.26;101575.81;4120263;28;20098;-72
2021/05/19 03:55:36;;;;;;;7.05;1.75;;;11.20;99.90;;;10.82;98.13;101585.94;4120355;28;20043;-71
2021/05/19 03:57:38;;;;;;;5.57;1.83;;;11.20;99.90;;;10.75;97.59;101593.56;4121611;28;20026;-72
2021/05/19 03:59:39;;;;;;;7.80;1.92;;;11.20;99.90;;;10.70;98.26;101611.63;4121653;28;20494;-71
2021/05/19 04:01:40;;;;;;;9.07;2.03;;;11.10;99.90;;;10.60;97.47;101602.03;4121158;28;20186;-71
2021/05/19 04:03:41;;;;;;;10.93;2.38;;;11.00;99.90;;;10.59;98.09;101609.09;4121256;28;20035;-71
2021/05/19 04:05:42;;;;;;;5.63;1.50;;;11.00;99.90;;;10.48;98.89;101623.22;4121507;28;20023;-71
2021/05/19 04:07:44;;;;;;;9.20;1.80;;;10.90;99.90;;;10.49;98.08;101613.50;4121380;28;20026;-71
2021/05/19 04:09:45;;;;;;;9.82;1.80;;;10.90;99.90;;;10.69;97.21;101625.81;4121098;28;20446;-71
2021/05/19 04:11:46;;;;;;;7.88;2.15;;;10.90;99.90;;;10.76;96.25;101632.19;4121228;28;20027;-71
2021/05/19 04:13:47;;;;;;;7.82;2.00;;;10.90;99.90;;;10.69;96.08;101630.25;4120235;28;20030;-71
2021/05/19 04:15:48;;;;;;;7.72;2.10;;;10.90;99.90;;;10.67;95.88;101630.38;4121351;28;20089;-71
2021/05/19 04:17:49;;;;;;;6.75;1.55;;;10.90;99.90;;;10.55;96.44;101632.28;4121266;28;20042;-72
2021/05/19 04:19:50;;;;;;;12.88;2.33;;;10.90;99.90;;;10.44;96.64;101636.81;4121162;28;20406;-71
2021/05/19 04:21:51;;;;;;;4.90;1.48;;;10.80;99.90;;;10.39;96.21;101631.13;4125271;28;20053;-71
2021/05/19 04:23:52;;;;;;;7.90;1.85;;;10.80;99.90;;;10.38;95.75;101640.00;4127144;28;20059;-71
2021/05/19 04:25:54;;;;;;;5.93;2.22;;;10.70;99.90;;;10.32;96.93;101653.69;4105192;28;20074;-71
2021/05/19 04:27:56;;;;;;;7.80;1.55;;;10.70;99.90;;;10.42;95.83;101644.03;4104955;28;20039;-71
2021/05/19 04:29:57;;;;;;;7.95;1.90;;;10.60;99.90;;;10.46;95.87;101641.00;4104960;28;20023;-71
2021/05/19 04:31:58;;;;;;;4.20;1.60;;;10.60;99.90;;;10.29;95.81;101654.81;4105172;28;20060;-71
2021/05/19 04:33:59;;;;;;;5.90;2.00;;;10.60;99.90;;;10.31;95.75;101657.31;4104968;28;20031;-71
2021/05/19 04:36:00;;;;;;;7.00;1.48;;;10.60;99.90;;;10.38;94.63;101663.72;4104876;28;20023;-71
2021/05/19 04:38:02;;;;;;;6.70;1.70;;;10.60;99.90;;;10.24;95.58;101658.81;4104946;28;20027;-71
2021/05/19 04:40:06;;;;;;;6.43;1.90;;;10.60;99.90;;;10.25;95.76;101668.38;4104749;28;20398;-71
2021/05/19 04:42:07;;;;;;;8.13;2.55;;;10.60;99.90;;;10.26;95.02;101675.31;4104912;28;20043;-71
2021/05/19 04:44:08;;;;;;;6.75;2.13;;;10.50;99.90;;;10.24;95.47;101672.00;4103753;28;20133;-71
2021/05/19 04:46:09;;;;;;;4.32;1.92;;;10.50;99.90;;;10.10;96.50;101659.09;4124691;28;20066;-71
2021/05/19 04:48:11;;;;;;;5.88;1.50;;;10.40;99.90;;;10.08;96.50;101672.44;4119598;28;20037;-71
2021/05/19 04:50:13;;;;;;;7.53;2.25;;;10.40;99.90;;;10.06;97.17;101678.81;4135461;28;20030;-71
2021/05/19 04:52:14;;;;;;;4.78;1.40;;;10.30;99.90;;;10.22;95.73;101674.75;4120638;28;20037;-71
2021/05/19 04:54:15;;;;;;;5.57;1.30;;;10.40;99.90;;;10.09;95.58;101678.53;4120510;28;20050;-71
2021/05/19 04:56:16;;;;;;;6.30;1.50;;;10.30;99.90;;;10.08;95.52;101674.22;4120686;28;20109;-71
2021/05/19 04:58:17;;;;;;;9.38;1.80;;;10.30;99.90;;;10.14;94.38;101679.84;4120422;28;20089;-71
2021/05/19 05:00:19;;;;;;;5.95;1.60;;;10.40;99.90;;;10.06;95.16;101678.81;4120609;28;20053;-71
2021/05/19 05:02:20;;;;;;;5.13;1.90;;;10.30;99.90;;;10.04;95.67;101673.63;4120303;28;20050;-71
2021/05/19 05:04:21;;;;;;;3.65;2.10;;;10.30;99.90;;;10.11;95.65;101682.72;4119515;28;20026;-71
2021/05/19 05:06:22;;;;;;;3.58;1.30;;;10.30;99.90;;;9.98;96.00;101688.19;4120505;28;20027;-71
2021/05/19 05:08:23;;;;;;;6.03;1.55;;;10.30;99.90;;;9.98;96.27;101693.44;4120094;28;20031;-71
2021/05/19 05:10:24;;;;;;;4.00;1.80;;;10.30;99.90;;;10.11;96.13;101692.41;4124176;28;20073;-71
2021/05/19 05:12:25;;;;;;;6.90;1.60;;;10.30;99.90;;;10.24;94.41;101693.94;4120281;28;20557;-71
2021/05/19 05:14:25;;;;;;;5.45;1.30;;;10.40;99.90;;;10.14;94.90;101698.31;4120335;28;20034;-71
2021/05/19 05:16:26;;;;;;;9.40;2.42;;;10.30;99.90;;;10.16;95.53;101695.53;4120161;28;20035;-71
2021/05/19 05:18:35;;;;;;;2.75;1.23;;;10.40;99.90;;;10.20;95.09;101702.22;4120412;28;20019;-71
2021/05/19 05:20:36;;;;;;;6.22;1.75;;;10.40;99.90;;;10.32;94.13;101698.53;4119130;28;20505;-71
2021/05/19 05:22:38;;;;;;;5.88;1.50;;;10.50;99.90;;;10.26;94.01;101704.34;4120032;28;20026;-71
2021/05/19 05:24:38;;;;;;;3.53;1.30;;;10.50;99.90;;;10.23;93.58;101708.06;4119867;28;20034;-71
2021/05/19 05:26:39;;;;;;;3.75;1.27;;;10.50;99.90;;;10.17;95.54;101703.31;4120235;28;20050;-71
2021/05/19 05:28:40;;;;;;;5.80;1.58;;;10.50;99.90;;;10.13;95.95;101712.44;4120231;28;20034;-71
2021/05/19 05:30:41;;;;;;;4.22;1.83;;;10.50;99.90;;;10.19;95.32;101711.06;4120123;28;20097;-71
2021/05/19 05:32:43;;;;;;;5.30;1.40;;;10.50;99.90;;;10.25;94.83;101705.28;4119913;28;20035;-71
2021/05/19 05:34:44;;;;;;;4.85;1.15;;;10.50;99.90;;;10.45;93.24;101717.63;4118939;28;20031;-71
2021/05/19 05:36:45;;;;;;;5.05;1.70;;;10.60;99.90;;;10.40;92.57;101712.75;4120045;28;20035;-71
2021/05/19 05:38:46;;;;;;;5.40;1.60;;;10.70;99.90;;;10.36;93.56;101711.31;4102528;29;20024;-71
2021/05/19 05:40:47;;;;;;;7.28;2.08;;;10.70;99.90;;;10.28;93.04;101700.59;4119902;28;20034;-71
2021/05/19 05:42:48;;;;;;;5.57;1.38;;;10.70;99.90;;;10.41;92.81;101717.06;4118760;28;20223;-71
2021/05/19 05:44:49;;;;;;;5.13;1.38;;;10.80;99.90;;;10.54;92.19;101730.03;4119921;28;20030;-71
2021/05/19 05:46:50;;;;;;;7.78;1.30;;;10.80;99.90;;;10.39;91.33;101726.88;4119838;28;20027;-71
2021/05/19 05:48:51;;;;;;;2.17;1.13;;;10.90;99.90;;;10.50;92.86;101732.09;4119675;28;20081;-71
2021/05/19 05:50:52;;;;;;;4.93;1.58;;;10.90;99.90;;;10.38;92.90;101711.19;4119853;28;20074;-71
2021/05/19 05:52:53;;;;;;;6.43;1.77;;;10.90;99.90;;;10.43;93.87;101735.38;4119916;28;20038;-72
2021/05/19 05:54:54;;;;;;;3.53;1.20;;;10.90;99.90;;;10.54;92.63;101730.03;4119160;28;20027;-71
2021/05/19 05:56:56;;;;;;;3.83;1.13;;;10.90;99.90;;;10.59;92.71;101734.91;4119676;28;20038;-71
2021/05/19 05:58:57;;;;;;;3.47;1.23;;;10.90;99.90;;;10.57;92.82;101742.97;4118558;28;20026;-71
2021/05/19 06:00:59;;;;;;;5.20;1.60;;;11.00;99.90;;;10.60;91.76;101726.88;4119846;28;20077;-71
2021/05/19 06:03:00;;;;;;;5.32;1.25;;;11.20;99.90;;;10.77;90.94;101739.44;4119729;28;20066;-71
2021/05/19 06:05:01;;;;;;;3.22;1.23;;;11.40;99.90;;;10.67;90.63;101738.56;4119613;28;20026;-71
2021/05/19 06:07:02;;;;;;;4.35;1.45;;;11.40;99.90;;;10.73;90.99;101748.56;4119514;28;20027;-72
2021/05/19 06:09:06;;;;;;;6.20;1.40;;;11.50;99.90;;;10.79;90.98;101745.41;4119458;28;20478;-72
2021/05/19 06:11:07;;;;;;;2.35;1.23;;;11.60;99.90;;;10.85;90.24;101758.06;4119890;28;20482;-73
2021/05/19 06:13:08;;;;;;;4.10;1.20;;;11.60;99.90;;;10.89;90.70;101754.22;4119590;28;20053;-72
2021/05/19 06:15:09;;;;;;;3.20;1.40;;;11.50;99.90;;;10.93;90.95;101755.59;4119788;28;20035;-72
2021/05/19 06:17:12;;;;;;;3.63;1.15;;;11.50;99.90;;;10.83;89.81;101754.75;4119685;28;20039;-73
2021/05/19 06:19:13;;;;;;;5.10;1.38;;;11.50;99.90;;;10.83;90.14;101751.25;4119780;28;20027;-72
2021/05/19 06:21:15;;;;;;;4.05;1.23;;;11.50;99.90;;;10.80;90.44;101751.53;4119592;28;20037;-72
2021/05/19 06:23:16;;;;;;;4.80;1.98;;;11.50;99.90;;;10.93;91.28;101750.31;4114829;28;20027;-72
2021/05/19 06:25:17;;;;;;;7.43;1.50;;;11.50;99.90;;;11.06;91.25;101758.84;4102648;28;20035;-72
2021/05/19 06:27:18;;;;;;;7.30;1.67;;;11.50;99.90;;;11.18;91.18;101769.28;4102527;28;20102;-73
2021/05/19 06:29:18;;;;;;;5.72;1.40;;;11.60;99.90;;;11.06;90.09;101758.00;4102355;28;20051;-72
2021/05/19 06:31:19;;;;;;;4.40;1.20;;;11.60;99.90;;;11.18;90.33;101756.94;4102616;28;20082;-72
2021/05/19 06:33:20;;;;;;;3.85;1.00;;;11.60;99.90;;;11.30;90.70;101765.56;4086471;29;20039;-72
2021/05/19 06:35:21;;;;;;;6.53;1.65;;;11.70;99.90;;;11.13;90.06;101760.94;4103489;28;20035;-72
2021/05/19 06:37:22;;;;;;;3.97;1.58;;;11.80;99.90;;;11.16;90.09;101771.25;4129465;28;20539;-73
2021/05/19 06:39:23;;;;;;;4.60;1.50;;;11.70;99.90;;;11.25;90.58;101766.00;4117108;28;20676;-72
2021/05/19 06:41:24;;;;;;;5.95;1.60;;;11.80;99.90;;;11.25;90.23;101770.44;4114789;28;20038;-73
2021/05/19 06:43:25;;;;;;;3.47;1.50;;;11.90;99.90;;;11.25;89.97;101779.19;4108862;28;20074;-72
2021/05/19 06:45:26;;;;;;;4.60;2.40;;;11.90;99.90;;;11.20;90.92;101783.22;4103132;28;20031;-73
2021/05/19 06:47:27;;;;;;;5.43;1.52;;;11.90;99.90;;;11.10;91.07;101778.75;4102891;28;20591;-72
2021/05/19 06:49:28;;;;;;;5.63;1.38;;;11.90;99.90;;;11.13;90.57;101776.78;4102267;28;20031;-73
2021/05/19 06:51:31;;;;;;;5.75;2.05;;;11.90;99.90;;;11.20;91.32;101764.72;4102067;28;20067;-73
2021/05/19 06:53:32;;;;;;;5.95;1.85;;;12.00;99.90;;;11.21;92.33;101783.06;4103079;28;20117;-73
2021/05/19 06:55:32;;;;;;;3.70;1.48;;;12.00;99.90;;;11.42;91.79;101790.91;4103336;28;20059;-72
2021/05/19 06:57:35;;;;;;;7.75;1.63;;;12.00;99.90;;;11.38;89.29;101781.59;4103040;28;20038;-73
2021/05/19 06:59:36;;;;;;;6.15;1.40;;;12.10;99.90;;;11.41;89.35;101789.25;4102129;28;20483;-72
2021/05/19 07:01:38;;;;;;;2.42;1.20;;;12.10;99.90;;;11.48;89.52;101793.84;4103055;28;20035;-73
2021/05/19 07:03:39;;;;;;;3.90;1.27;;;12.20;99.90;;;11.38;89.43;101785.06;4102885;28;20035;-72
2021/05/19 07:05:40;;;;;;;3.10;1.15;;;12.20;99.90;;;11.58;89.51;101800.00;4116936;28;20491;-72
2021/05/19 07:07:42;;;;;;;4.28;1.38;;;12.20;99.90;;;11.65;88.80;101790.53;4119531;28;20031;-71
2021/05/19 07:09:43;;;;;;;2.42;1.30;;;12.40;99.90;;;11.57;89.68;101798.31;4114206;28;20523;-71
2021/05/19 07:11:44;;;;;;;4.82;1.58;;;12.40;99.90;;;11.73;89.14;101802.25;4105754;28;20027;-71
2021/05/19 07:13:45;;;;;;;5.53;2.20;;;12.40;99.90;;;11.64;87.24;101803.91;4121594;28;20033;-71
2021/05/19 07:15:51;;;;;;;6.70;1.20;;;12.50;99.90;;;11.58;86.23;101800.00;4117970;28;20526;-71
2021/05/19 07:17:52;;;;;;;3.05;1.40;;;12.50;99.90;;;11.58;86.82;101793.88;4119309;28;20038;-72
2021/05/19 07:19:53;;;;;;;4.18;1.20;;;12.50;99.90;;;11.82;87.37;101799.63;4120753;28;20043;-72
2021/05/19 07:21:54;;;;;;;4.25;1.50;;;12.60;99.90;;;11.75;87.02;101802.94;4121676;28;20542;-73
2021/05/19 07:23:57;;;;;;;4.97;1.10;;;12.60;99.90;;;11.91;86.37;101804.09;4121298;28;20090;-73
2021/05/19 07:25:57;;;;;;;3.45;1.23;;;12.60;99.90;;;11.96;87.40;101815.09;4118100;28;20034;-73
2021/05/19 07:27:58;;;;;;;3.88;1.20;;;12.70;99.90;;;11.87;87.16;101800.03;4120297;28;20030;-72
2021/05/19 07:30:00;;;;;;;7.43;1.48;;;12.70;99.90;;;12.08;87.23;101803.41;4114346;28;20063;-72
2021/05/19 07:32:02;;;;;;;5.20;1.23;;;12.80;99.90;;;12.10;85.24;101827.88;4106052;28;20023;-73
2021/05/19 07:34:04;;;;;;;2.90;0.95;;;12.90;99.90;;;11.88;82.29;101811.47;4121764;28;20109;-73
2021/05/19 07:36:05;;;;;;;3.38;1.10;;;12.90;99.90;;;12.03;83.37;101821.50;4120450;28;20030;-73
2021/05/19 07:38:08;;;;;;;3.08;1.02;;;12.90;99.90;;;12.18;83.32;101811.34;4121411;28;20506;-73
2021/05/19 07:40:10;;;;;;;3.80;1.00;;;13.00;99.90;;;11.87;83.38;101807.13;4121509;28;20042;-73
2021/05/19 07:42:16;;;;;;;5.22;2.35;;;13.00;99.90;;;12.31;84.79;101824.25;4121498;28;20402;-73
2021/05/19 07:44:17;;;;;;;3.88;1.20;;;13.10;99.90;;;12.32;85.35;101818.00;4121526;28;20035;-73
2021/05/19 07:46:18;;;;;;;2.60;1.35;;;13.20;99.90;;;12.43;82.24;101833.69;4121632;28;20498;-73
2021/05/19 07:48:19;;;;;;;7.00;1.83;;;13.40;99.90;;;12.48;82.55;101831.50;4121100;28;20027;-74
2021/05/19 07:50:21;;;;;;;5.78;1.73;;;13.40;99.90;;;12.56;83.89;101824.50;4121266;28;20399;-75
2021/05/19 07:52:21;;;;;;;4.07;0.90;;;13.60;99.90;;;12.74;80.81;101829.88;4120128;28;20035;-74
2021/05/19 07:54:28;;;;;;;4.22;1.42;;;13.70;99.90;;;12.58;81.51;101832.28;4121275;28;20390;-74
2021/05/19 07:58:34;;;;;;;3.67;1.05;;;13.70;99.90;;;12.67;80.69;101834.09;4120976;28;20033;-74
2021/05/19 08:02:36;;;;;;;5.10;1.13;;;13.90;99.90;;;12.95;81.91;101851.72;4136033;28;20113;-73
2021/05/19 08:04:38;;;;;;;6.25;1.10;;;14.00;99.90;;;13.12;78.31;101850.13;4121181;28;20526;-72
2021/05/19 08:06:39;;;;;;;3.95;1.13;;;14.20;99.90;;;12.92;76.47;101870.53;4121275;28;20034;-73
2021/05/19 08:08:40;;;;;;;3.65;0.90;;;14.20;99.90;;;12.61;77.20;101858.47;4119458;28;20406;-74
2021/05/19 08:10:42;;;;;;;4.97;1.45;;;14.00;99.90;;;12.83;76.63;101868.75;4105249;28;20110;-76
2021/05/19 08:12:43;;;;;;;4.68;1.30;;;14.00;99.90;;;12.84;76.44;101851.91;4105019;28;20035;-73
2021/05/19 08:14:45;;;;;;;7.03;1.20;;;14.00;99.90;;;12.97;76.70;101841.81;4104955;28;20028;-76
2021/05/19 08:16:46;;;;;;;5.00;1.13;;;14.10;99.90;;;13.06;75.35;101851.53;4105266;28;20449;-74
2021/05/19 08:18:47;;;;;;;3.17;1.02;;;14.10;99.90;;;13.22;75.58;101849.13;4104453;28;20100;-71
2021/05/19 08:20:48;;;;;;;5.10;1.20;;;14.20;99.90;;;13.20;74.47;101845.78;4105229;28;20031;-72
2021/05/19 08:22:49;;;;;;;6.80;1.30;;;14.30;99.90;;;13.47;74.33;101849.44;4117789;28;20027;-72
2021/05/19 08:24:50;;;;;;;6.15;1.33;;;14.50;99.90;;;13.67;72.92;101859.78;4120860;28;20030;-73
2021/05/19 08:26:51;;;;;;;2.83;1.05;;;14.70;99.90;;;13.74;72.26;101862.66;4120934;28;20084;-71
2021/05/19 08:28:52;;;;;;;4.70;1.48;;;14.90;99.90;;;13.82;74.57;101878.69;4120253;28;20065;-73
2021/05/19 08:30:53;;;;;;;3.00;1.10;;;15.00;99.90;;;13.71;71.16;101876.22;4120895;28;20544;-74
2021/05/19 08:32:54;;;;;;;7.32;1.20;;;15.10;99.90;;;13.63;69.46;101860.22;4120924;28;20505;-72